Time;durP1;ratioP1;P1;durP2;ratioP2;P2;SDS_P1;SDS_P2;PMS_P1;PMS_P2;Temp;Humidity;BMP_temperature;BMP_pressure;BME280_temperature;BME280_humidity;BME280_pressure;Samples;Min_cycle;Max_cycle;Signal;HPM_P1;HPM_P2
2022/10/07 00:00:39;;;;;;;18.58;6.00;;;;;;;;;;5031051;28;20041;-68
2022/10/07 00:03:05;;;;;;;12.32;5.85;;;;;;;;;;5030501;28;20024;-68
2022/10/07 00:05:30;;;;;;;16.30;6.50;;;;;;;;;;5030309;28;20402;-68
2022/10/07 00:07:55;;;;;;;17.70;7.20;;;;;;;;;;5030666;28;20013;-67
2022/10/07 00:10:20;;;;;;;16.42;6.32;;;;;;;;;;5030621;28;20005;-70
2022/10/07 00:12:46;;;;;;;13.67;5.90;;;;;;;;;;5031083;28;20463;-67
2022/10/07 00:15:12;;;;;;;15.40;7.07;;;;;;;;;;5031387;28;20302;-71
2022/10/07 00:17:37;;;;;;;23.05;5.95;;;;;;;;;;5031859;28;20104;-69
2022/10/07 00:20:02;;;;;;;17.77;6.03;;;;;;;;;;5013454;28;20049;-69
2022/10/07 00:22:27;;;;;;;18.48;6.50;;;;;;;;;;5030849;28;20021;-67
2022/10/07 00:24:52;;;;;;;16.17;5.78;;;;;;;;;;5030644;28;20531;-68
2022/10/07 00:27:18;;;;;;;19.05;5.78;;;;;;;;;;5030777;28;20067;-66
2022/10/07 00:29:43;;;;;;;13.43;4.80;;;;;;;;;;5030426;28;20026;-69
2022/10/07 00:32:08;;;;;;;18.98;6.18;;;;;;;;;;5013435;28;20903;-69
2022/10/07 00:34:34;;;;;;;16.70;6.55;;;;;;;;;;5013169;28;21291;-66
2022/10/07 00:36:59;;;;;;;18.08;5.63;;;;;;;;;;5030671;28;20017;-69
2022/10/07 00:39:24;;;;;;;14.90;5.68;;;;;;;;;;5030903;28;20168;-67
2022/10/07 00:41:50;;;;;;;15.98;6.10;;;;;;;;;;5031453;28;20089;-69
2022/10/07 00:44:24;;;;;;;11.80;5.82;;;;;;;;;;5032008;28;20021;-66
2022/10/07 00:46:51;;;;;;;15.43;5.68;;;;;;;;;;5031289;28;20013;-70
2022/10/07 00:49:16;;;;;;;11.63;5.78;;;;;;;;;;5030944;28;20014;-69
2022/10/07 00:51:42;;;;;;;17.80;5.57;;;;;;;;;;5031176;28;20021;-69
2022/10/07 00:54:10;;;;;;;11.40;5.43;;;;;;;;;;5030501;28;20475;-69
2022/10/07 00:56:35;;;;;;;15.00;5.22;;;;;;;;;;5029727;28;20023;-68
2022/10/07 00:59:00;;;;;;;13.63;6.03;;;;;;;;;;5030175;28;20073;-71
2022/10/07 01:01:26;;;;;;;10.43;6.15;;;;;;;;;;5024803;28;20022;-69
2022/10/07 01:03:51;;;;;;;15.18;5.88;;;;;;;;;;5026560;28;20021;-69
2022/10/07 01:06:16;;;;;;;14.02;6.20;;;;;;;;;;5030183;28;20486;-67
2022/10/07 01:08:42;;;;;;;23.52;6.72;;;;;;;;;;5027714;28;20047;-69
2022/10/07 01:11:16;;;;;;;15.18;6.88;;;;;;;;;;5028729;28;20021;-69
2022/10/07 01:13:58;;;;;;;16.52;6.82;;;;;;;;;;5012084;28;20009;-69
2022/10/07 01:16:46;;;;;;;20.10;6.63;;;;;;;;;;5029019;28;20607;-71
2022/10/07 01:19:30;;;;;;;21.13;7.00;;;;;;;;;;5019846;28;20014;-68
2022/10/07 01:22:05;;;;;;;17.25;6.65;;;;;;;;;;5028748;28;20009;-70
2022/10/07 01:24:39;;;;;;;19.45;6.70;;;;;;;;;;5011863;28;20079;-70
2022/10/07 01:27:25;;;;;;;16.45;7.22;;;;;;;;;;5029217;28;20014;-69
2022/10/07 01:29:56;;;;;;;15.32;6.65;;;;;;;;;;5029062;28;20077;-65
2022/10/07 01:32:24;;;;;;;15.35;6.45;;;;;;;;;;5029513;28;20025;-65
2022/10/07 01:34:51;;;;;;;16.37;6.50;;;;;;;;;;5028736;28;20009;-68
2022/10/07 01:37:17;;;;;;;19.83;6.82;;;;;;;;;;5029292;28;20025;-67
2022/10/07 01:39:47;;;;;;;16.27;7.40;;;;;;;;;;5029237;28;20041;-69
2022/10/07 01:42:12;;;;;;;14.63;5.88;;;;;;;;;;5028324;28;20627;-66
2022/10/07 01:44:38;;;;;;;17.40;7.47;;;;;;;;;;5029137;28;20033;-68
2022/10/07 01:47:04;;;;;;;13.98;7.18;;;;;;;;;;5028235;28;20029;-66
2022/10/07 01:49:29;;;;;;;16.23;7.15;;;;;;;;;;5029282;28;20010;-67
2022/10/07 01:52:07;;;;;;;22.88;7.10;;;;;;;;;;5023730;28;20029;-70
2022/10/07 01:54:40;;;;;;;19.08;7.57;;;;;;;;;;5029046;28;20022;-66
2022/10/07 01:57:08;;;;;;;17.20;6.90;;;;;;;;;;5028745;28;20104;-69
2022/10/07 01:59:41;;;;;;;16.75;6.75;;;;;;;;;;5029143;28;20060;-67
2022/10/07 02:02:13;;;;;;;15.88;7.20;;;;;;;;;;5028105;28;20026;-67
2022/10/07 02:04:44;;;;;;;20.00;7.22;;;;;;;;;;5028756;28;20040;-67
2022/10/07 02:07:21;;;;;;;22.50;9.77;;;;;;;;;;5028596;28;20022;-67
2022/10/07 02:09:49;;;;;;;17.23;8.52;;;;;;;;;;5028814;28;20017;-66
2022/10/07 02:12:20;;;;;;;18.90;8.90;;;;;;;;;;5028675;28;20014;-67
2022/10/07 02:14:53;;;;;;;19.42;9.43;;;;;;;;;;5028374;28;20083;-68
2022/10/07 02:17:19;;;;;;;13.88;7.78;;;;;;;;;;5016297;28;20063;-69
2022/10/07 02:19:47;;;;;;;15.55;8.13;;;;;;;;;;5015939;28;20020;-68
2022/10/07 02:22:14;;;;;;;21.92;8.38;;;;;;;;;;5010557;28;20014;-68
2022/10/07 02:24:41;;;;;;;19.92;7.45;;;;;;;;;;5029239;28;20030;-66
2022/10/07 02:27:08;;;;;;;16.83;8.20;;;;;;;;;;5028902;28;20021;-68
2022/10/07 02:29:34;;;;;;;14.50;7.55;;;;;;;;;;5021222;28;20009;-68
2022/10/07 02:32:01;;;;;;;22.05;7.65;;;;;;;;;;5027697;28;20017;-67
2022/10/07 02:34:27;;;;;;;12.95;7.10;;;;;;;;;;5028780;28;20507;-69
2022/10/07 02:36:54;;;;;;;18.17;8.00;;;;;;;;;;5009995;28;20527;-69
2022/10/07 02:39:20;;;;;;;15.48;7.70;;;;;;;;;;5029128;28;20036;-66
2022/10/07 02:41:50;;;;;;;15.38;7.40;;;;;;;;;;5028681;28;20017;-68
2022/10/07 02:44:15;;;;;;;24.35;6.95;;;;;;;;;;5028399;28;20025;-69
2022/10/07 02:46:50;;;;;;;20.25;8.70;;;;;;;;;;5028583;28;20143;-66
2022/10/07 02:49:17;;;;;;;19.77;8.50;;;;;;;;;;5028634;28;20014;-69
2022/10/07 02:51:49;;;;;;;24.58;8.27;;;;;;;;;;5028681;28;20021;-66
2022/10/07 02:54:16;;;;;;;21.90;8.90;;;;;;;;;;5028715;28;20029;-67
2022/10/07 02:56:42;;;;;;;18.88;7.85;;;;;;;;;;5028269;28;20018;-69
2022/10/07 02:59:09;;;;;;;15.52;7.20;;;;;;;;;;5013116;28;20029;-68
2022/10/07 03:01:38;;;;;;;17.90;7.65;;;;;;;;;;5024684;28;20463;-68
2022/10/07 03:04:04;;;;;;;16.33;8.10;;;;;;;;;;5030205;28;20021;-68
2022/10/07 03:06:29;;;;;;;13.75;7.03;;;;;;;;;;5031804;28;20021;-70
2022/10/07 03:08:56;;;;;;;22.35;9.05;;;;;;;;;;5031868;28;20016;-68
2022/10/07 03:11:22;;;;;;;21.50;8.10;;;;;;;;;;5032124;28;20092;-67
2022/10/07 03:13:47;;;;;;;16.05;7.85;;;;;;;;;;5032040;28;20036;-68
2022/10/07 03:16:12;;;;;;;25.02;8.18;;;;;;;;;;5030741;28;20021;-67
2022/10/07 03:18:38;;;;;;;19.13;7.60;;;;;;;;;;5026660;28;20053;-68
2022/10/07 03:21:03;;;;;;;16.73;8.32;;;;;;;;;;5023583;28;20072;-68
2022/10/07 03:23:29;;;;;;;21.23;7.88;;;;;;;;;;5031545;28;20036;-69
2022/10/07 03:25:55;;;;;;;23.55;7.50;;;;;;;;;;5031835;28;20071;-69
2022/10/07 03:28:21;;;;;;;23.48;8.38;;;;;;;;;;5031293;28;20024;-67
2022/10/07 03:30:47;;;;;;;15.07;6.97;;;;;;;;;;5013480;28;20017;-68
2022/10/07 03:33:12;;;;;;;25.23;7.20;;;;;;;;;;5032040;28;20359;-65
2022/10/07 03:35:37;;;;;;;24.98;8.27;;;;;;;;;;5031890;28;20021;-69
2022/10/07 03:38:05;;;;;;;21.73;8.20;;;;;;;;;;5031532;28;20176;-66
2022/10/07 03:40:30;;;;;;;19.55;8.68;;;;;;;;;;5030853;28;20128;-66
2022/10/07 03:42:56;;;;;;;17.63;7.78;;;;;;;;;;5031144;28;20032;-68
2022/10/07 03:45:21;;;;;;;15.77;7.15;;;;;;;;;;5031304;28;20028;-68
2022/10/07 03:47:46;;;;;;;16.05;6.88;;;;;;;;;;5030988;28;20075;-68
2022/10/07 03:50:11;;;;;;;18.75;7.05;;;;;;;;;;5029321;28;20063;-66
2022/10/07 03:52:36;;;;;;;18.25;8.27;;;;;;;;;;5028368;28;20547;-68
2022/10/07 03:55:02;;;;;;;15.63;6.93;;;;;;;;;;5032164;28;20498;-67
2022/10/07 04:00:11;;;;;;;26.58;7.88;;;;;;;;;;5027994;28;20021;-65
2022/10/07 04:02:36;;;;;;;13.70;7.07;;;;;;;;;;5029652;28;20028;-68
2022/10/07 04:05:02;;;;;;;17.92;8.20;;;;;;;;;;5030391;28;20022;-66
2022/10/07 04:07:27;;;;;;;18.95;7.18;;;;;;;;;;5030285;28;20024;-69
2022/10/07 04:09:52;;;;;;;18.63;7.25;;;;;;;;;;5030018;28;20349;-67
2022/10/07 04:12:17;;;;;;;20.88;7.65;;;;;;;;;;5012885;28;20044;-67
2022/10/07 04:14:43;;;;;;;15.00;7.18;;;;;;;;;;5030251;28;20038;-65
2022/10/07 04:17:08;;;;;;;18.77;7.22;;;;;;;;;;5030501;28;20075;-69
2022/10/07 04:19:34;;;;;;;16.73;8.18;;;;;;;;;;5018766;28;20026;-67
2022/10/07 04:21:59;;;;;;;15.73;7.85;;;;;;;;;;5029882;28;20035;-72
2022/10/07 04:24:24;;;;;;;17.07;7.43;;;;;;;;;;5030622;28;20017;-66
2022/10/07 04:26:49;;;;;;;16.20;6.88;;;;;;;;;;5029703;28;20667;-68
2022/10/07 04:29:15;;;;;;;13.70;6.97;;;;;;;;;;5009315;28;20429;-69
2022/10/07 04:31:40;;;;;;;21.50;7.60;;;;;;;;;;5028539;28;20021;-67
2022/10/07 04:34:05;;;;;;;23.20;7.53;;;;;;;;;;5030707;28;20033;-69
2022/10/07 04:36:31;;;;;;;25.27;8.50;;;;;;;;;;5030785;28;20463;-68
2022/10/07 04:38:56;;;;;;;24.52;7.93;;;;;;;;;;5031214;28;20071;-68
2022/10/07 04:41:22;;;;;;;12.63;6.72;;;;;;;;;;5013687;28;20017;-68
2022/10/07 04:43:50;;;;;;;19.70;8.88;;;;;;;;;;5031483;28;20103;-70
2022/10/07 04:46:15;;;;;;;20.95;9.63;;;;;;;;;;5031181;28;20414;-69
2022/10/07 04:48:44;;;;;;;30.88;12.43;;;;;;;;;;5030916;28;20017;-70
2022/10/07 04:51:10;;;;;;;37.13;16.45;;;;;;;;;;5030897;28;20013;-68
2022/10/07 04:53:36;;;;;;;29.63;12.48;;;;;;;;;;5031028;28;20345;-71
2022/10/07 04:56:01;;;;;;;24.05;10.00;;;;;;;;;;5030866;28;20379;-70
2022/10/07 04:58:27;;;;;;;20.85;8.23;;;;;;;;;;5029638;28;20083;-68
2022/10/07 05:00:53;;;;;;;22.60;8.98;;;;;;;;;;5009050;28;20064;-67
2022/10/07 05:03:19;;;;;;;38.30;8.18;;;;;;;;;;5029072;28;20382;-71
2022/10/07 05:05:48;;;;;;;27.00;8.05;;;;;;;;;;5011489;28;20017;-69
2022/10/07 05:08:15;;;;;;;19.83;8.88;;;;;;;;;;5030492;28;20077;-68
2022/10/07 05:10:41;;;;;;;16.92;8.70;;;;;;;;;;5030530;28;20048;-66
2022/10/07 05:13:13;;;;;;;14.27;7.68;;;;;;;;;;5012028;28;20455;-68
2022/10/07 05:15:51;;;;;;;24.25;9.23;;;;;;;;;;5030183;28;20040;-68
2022/10/07 05:18:18;;;;;;;14.45;7.82;;;;;;;;;;5027796;28;20430;-68
2022/10/07 05:20:45;;;;;;;18.77;8.10;;;;;;;;;;5029881;28;20582;-66
2022/10/07 05:23:10;;;;;;;20.48;8.77;;;;;;;;;;5028718;28;20017;-70
2022/10/07 05:25:35;;;;;;;21.80;7.72;;;;;;;;;;5030205;28;20104;-67
2022/10/07 05:28:00;;;;;;;21.35;8.15;;;;;;;;;;5029698;28;20013;-68
2022/10/07 05:30:26;;;;;;;20.20;7.50;;;;;;;;;;5011564;28;20108;-68
2022/10/07 05:32:53;;;;;;;16.35;7.07;;;;;;;;;;5029922;28;20100;-69
2022/10/07 05:35:18;;;;;;;12.13;7.00;;;;;;;;;;5012209;28;20005;-69
2022/10/07 05:37:43;;;;;;;22.50;6.90;;;;;;;;;;5030387;28;20040;-67
2022/10/07 05:40:09;;;;;;;16.90;7.10;;;;;;;;;;5012187;28;20021;-69
2022/10/07 05:42:34;;;;;;;18.08;7.45;;;;;;;;;;5032214;28;20096;-67
2022/10/07 05:44:59;;;;;;;13.85;6.07;;;;;;;;;;5030406;28;20075;-68
2022/10/07 05:47:25;;;;;;;10.60;6.05;;;;;;;;;;5029948;28;20064;-68
2022/10/07 05:49:52;;;;;;;13.88;7.15;;;;;;;;;;5030160;28;20017;-67
2022/10/07 05:52:19;;;;;;;13.95;6.90;;;;;;;;;;5023296;28;20037;-69
2022/10/07 05:54:45;;;;;;;21.20;6.43;;;;;;;;;;5030098;28;20020;-67
2022/10/07 05:57:10;;;;;;;17.13;6.85;;;;;;;;;;5011833;28;20017;-66
2022/10/07 05:59:35;;;;;;;15.48;7.18;;;;;;;;;;5029144;28;20029;-69
2022/10/07 06:02:01;;;;;;;14.07;6.53;;;;;;;;;;5016833;28;20036;-66
2022/10/07 06:04:26;;;;;;;24.05;6.70;;;;;;;;;;5030267;28;20022;-68
2022/10/07 06:06:51;;;;;;;13.88;7.22;;;;;;;;;;5030014;28;20025;-66
2022/10/07 06:14:44;;;;;;;14.32;7.28;;;;;;;;;;5030133;28;20505;-68
2022/10/07 06:17:10;;;;;;;27.33;8.98;;;;;;;;;;5029736;28;20112;-66
2022/10/07 06:19:36;;;;;;;24.65;8.02;;;;;;;;;;5028645;28;20180;-67
2022/10/07 06:22:01;;;;;;;17.70;8.55;;;;;;;;;;5029622;28;20025;-69
2022/10/07 06:24:26;;;;;;;27.15;8.13;;;;;;;;;;5029907;28;20096;-68
2022/10/07 06:26:54;;;;;;;22.25;8.60;;;;;;;;;;5029152;28;20464;-68
2022/10/07 06:29:19;;;;;;;17.08;7.65;;;;;;;;;;5027643;28;20009;-69
2022/10/07 06:31:45;;;;;;;18.20;8.15;;;;;;;;;;5029548;28;20024;-67
2022/10/07 06:34:10;;;;;;;17.35;7.68;;;;;;;;;;5033218;28;20017;-69
2022/10/07 06:36:35;;;;;;;21.23;9.15;;;;;;;;;;5034063;28;20096;-66
2022/10/07 06:39:00;;;;;;;15.57;7.60;;;;;;;;;;5033976;28;20045;-68
2022/10/07 06:41:26;;;;;;;16.67;7.60;;;;;;;;;;5033218;28;20096;-68
2022/10/07 06:43:54;;;;;;;17.02;8.35;;;;;;;;;;5033659;28;20033;-69
2022/10/07 06:46:19;;;;;;;20.33;7.30;;;;;;;;;;5033374;28;20033;-68
2022/10/07 06:48:47;;;;;;;18.73;7.95;;;;;;;;;;5032768;28;20467;-68
2022/10/07 06:51:13;;;;;;;15.70;7.80;;;;;;;;;;5032876;28;20474;-69
2022/10/07 06:53:38;;;;;;;18.58;7.45;;;;;;;;;;5033466;28;20059;-69
2022/10/07 06:56:04;;;;;;;15.60;7.53;;;;;;;;;;5033012;28;20398;-69
2022/10/07 06:58:29;;;;;;;26.17;7.55;;;;;;;;;;5014866;28;20030;-66
2022/10/07 07:00:55;;;;;;;15.60;7.22;;;;;;;;;;5030642;28;20030;-67
2022/10/07 07:03:21;;;;;;;12.20;6.75;;;;;;;;;;5023752;28;20021;-68
2022/10/07 07:05:46;;;;;;;21.85;7.75;;;;;;;;;;5031939;28;20018;-67
2022/10/07 07:08:15;;;;;;;13.98;7.40;;;;;;;;;;5032604;28;20139;-69
2022/10/07 07:10:41;;;;;;;14.00;6.68;;;;;;;;;;5032464;28;20005;-69
2022/10/07 07:13:07;;;;;;;18.48;7.97;;;;;;;;;;5031868;28;20049;-66
2022/10/07 07:15:33;;;;;;;16.75;7.85;;;;;;;;;;5031581;28;20103;-69
2022/10/07 07:17:58;;;;;;;24.13;7.68;;;;;;;;;;5031682;28;20021;-68
2022/10/07 07:20:24;;;;;;;17.92;7.00;;;;;;;;;;5014565;28;20032;-69
2022/10/07 07:22:51;;;;;;;11.98;6.57;;;;;;;;;;5032800;28;20044;-70
2022/10/07 07:25:16;;;;;;;10.30;5.88;;;;;;;;;;5032071;28;20018;-68
2022/10/07 07:27:42;;;;;;;18.58;6.38;;;;;;;;;;5014561;28;20021;-69
2022/10/07 07:30:07;;;;;;;11.75;6.40;;;;;;;;;;5032383;28;20022;-68
2022/10/07 07:32:33;;;;;;;11.55;5.93;;;;;;;;;;5014712;28;20017;-69
2022/10/07 07:35:00;;;;;;;25.33;6.35;;;;;;;;;;5032519;28;20028;-70
2022/10/07 07:37:28;;;;;;;18.13;5.90;;;;;;;;;;5032363;28;20021;-70
2022/10/07 07:39:53;;;;;;;18.67;7.25;;;;;;;;;;5032046;28;20112;-68
2022/10/07 07:42:20;;;;;;;13.05;5.97;;;;;;;;;;5032219;28;20100;-70
2022/10/07 07:44:46;;;;;;;17.75;6.05;;;;;;;;;;5031080;28;20025;-69
2022/10/07 07:47:11;;;;;;;20.63;5.50;;;;;;;;;;5031794;28;20021;-68
2022/10/07 07:49:36;;;;;;;15.02;5.35;;;;;;;;;;5031998;28;20360;-66
2022/10/07 07:52:02;;;;;;;20.30;5.35;;;;;;;;;;5025230;28;20388;-68
2022/10/07 07:54:27;;;;;;;16.70;6.55;;;;;;;;;;5032056;28;20100;-69
2022/10/07 07:56:54;;;;;;;14.50;5.63;;;;;;;;;;5013766;28;20113;-68
2022/10/07 07:59:19;;;;;;;10.98;4.63;;;;;;;;;;5031509;28;20022;-69
2022/10/07 08:01:44;;;;;;;12.77;5.00;;;;;;;;;;5010329;28;20575;-66
2022/10/07 08:04:09;;;;;;;18.00;5.03;;;;;;;;;;5027303;28;20031;-68
2022/10/07 08:06:36;;;;;;;16.38;5.72;;;;;;;;;;5032555;28;20108;-73
2022/10/07 08:09:02;;;;;;;14.75;4.50;;;;;;;;;;5031930;28;20014;-68
2022/10/07 08:11:28;;;;;;;14.80;4.60;;;;;;;;;;5032131;28;20418;-68
2022/10/07 08:13:54;;;;;;;18.23;5.13;;;;;;;;;;5032024;28;20014;-67
2022/10/07 08:16:21;;;;;;;17.80;4.78;;;;;;;;;;5031459;28;20071;-68
2022/10/07 08:18:48;;;;;;;15.68;5.05;;;;;;;;;;5030081;28;20085;-68
2022/10/07 08:21:14;;;;;;;19.63;4.63;;;;;;;;;;5031816;28;20047;-69
2022/10/07 08:23:40;;;;;;;12.25;4.47;;;;;;;;;;5032535;28;20022;-69
2022/10/07 08:26:06;;;;;;;12.77;4.38;;;;;;;;;;5031944;28;20383;-69
2022/10/07 08:28:33;;;;;;;13.63;4.70;;;;;;;;;;5031566;28;20397;-68
2022/10/07 08:31:06;;;;;;;14.77;6.00;;;;;;;;;;5031963;28;20463;-70
2022/10/07 08:33:35;;;;;;;12.55;4.28;;;;;;;;;;5031658;28;20022;-68
2022/10/07 08:36:01;;;;;;;18.35;5.38;;;;;;;;;;5031564;28;20013;-69
2022/10/07 08:38:31;;;;;;;21.58;5.10;;;;;;;;;;5031323;28;20119;-68
2022/10/07 08:40:59;;;;;;;25.55;4.82;;;;;;;;;;5031354;28;20033;-67
2022/10/07 08:43:24;;;;;;;13.88;4.40;;;;;;;;;;5031256;28;20101;-69
2022/10/07 08:45:51;;;;;;;14.52;4.07;;;;;;;;;;5030911;28;20120;-68
2022/10/07 08:48:27;;;;;;;11.88;3.95;;;;;;;;;;5030794;28;20014;-68
2022/10/07 08:50:57;;;;;;;10.13;4.43;;;;;;;;;;5030878;28;20020;-69
2022/10/07 08:53:28;;;;;;;9.93;4.07;;;;;;;;;;5013666;28;20024;-68
2022/10/07 08:55:55;;;;;;;10.77;4.22;;;;;;;;;;5030605;28;20056;-67
2022/10/07 08:58:21;;;;;;;18.08;3.95;;;;;;;;;;5030758;28;20021;-66
2022/10/07 09:00:55;;;;;;;9.88;3.85;;;;;;;;;;5011949;28;20379;-69
2022/10/07 09:03:42;;;;;;;15.13;4.05;;;;;;;;;;5022321;28;20092;-68
2022/10/07 09:06:10;;;;;;;15.82;4.90;;;;;;;;;;5030635;28;20032;-68
2022/10/07 09:08:39;;;;;;;13.73;4.05;;;;;;;;;;5030977;28;20017;-67
2022/10/07 09:11:18;;;;;;;;;;;;;;;;;;5031236;28;20514;-69
2022/10/07 09:13:49;;;;;;;16.48;4.57;;;;;;;;;;5031488;28;19904;-69
2022/10/07 09:16:37;;;;;;;18.25;4.05;;;;;;;;;;5030644;28;20028;-69
2022/10/07 09:19:03;;;;;;;15.48;4.82;;;;;;;;;;5022825;28;20033;-70
2022/10/07 09:21:28;;;;;;;8.30;3.75;;;;;;;;;;5030727;28;20020;-67
2022/10/07 09:23:55;;;;;;;12.70;3.65;;;;;;;;;;5030601;28;20096;-70
2022/10/07 09:26:20;;;;;;;12.20;5.40;;;;;;;;;;5029790;28;20021;-67
2022/10/07 09:28:46;;;;;;;9.43;3.83;;;;;;;;;;5012156;28;20439;-70
2022/10/07 09:31:13;;;;;;;16.83;4.40;;;;;;;;;;5012347;28;20167;-69
2022/10/07 09:33:42;;;;;;;10.80;4.20;;;;;;;;;;5012760;28;20375;-68
2022/10/07 09:36:09;;;;;;;15.73;4.88;;;;;;;;;;5030236;28;20502;-70
2022/10/07 09:38:38;;;;;;;11.52;3.85;;;;;;;;;;5029836;28;20192;-69
2022/10/07 09:41:15;;;;;;;11.57;3.67;;;;;;;;;;5030205;28;20013;-69
2022/10/07 09:43:53;;;;;;;15.27;4.53;;;;;;;;;;5012493;28;20391;-66
2022/10/07 09:46:37;;;;;;;18.53;5.20;;;;;;;;;;5011393;28;20162;-69
2022/10/07 09:49:04;;;;;;;15.70;4.50;;;;;;;;;;5011776;28;20006;-67
2022/10/07 09:51:31;;;;;;;16.23;4.70;;;;;;;;;;5029246;28;20071;-69
2022/10/07 09:54:01;;;;;;;14.45;4.30;;;;;;;;;;5029595;28;20138;-69
2022/10/07 09:56:45;;;;;;;10.75;3.80;;;;;;;;;;4998827;28;20101;-69
2022/10/07 09:59:16;;;;;;;15.35;3.80;;;;;;;;;;5011104;28;20078;-66
2022/10/07 10:01:47;;;;;;;14.15;3.65;;;;;;;;;;5029388;28;20029;-69
2022/10/07 10:04:16;;;;;;;9.13;3.30;;;;;;;;;;5029904;28;20411;-68
2022/10/07 10:06:46;;;;;;;10.82;3.75;;;;;;;;;;5029172;28;20286;-68
2022/10/07 10:09:12;;;;;;;11.77;3.47;;;;;;;;;;5032303;28;20493;-68
2022/10/07 10:11:37;;;;;;;15.98;4.13;;;;;;;;;;5033512;28;20104;-69
2022/10/07 10:14:22;;;;;;;16.88;2.90;;;;;;;;;;5033828;28;20021;-68
2022/10/07 10:16:47;;;;;;;6.70;1.90;;;;;;;;;;5033008;28;20121;-68
2022/10/07 10:19:38;;;;;;;9.13;2.45;;;;;;;;;;5031916;28;20033;-67
2022/10/07 10:22:04;;;;;;;10.57;2.55;;;;;;;;;;5029334;28;20030;-68
2022/10/07 10:27:33;;;;;;;10.30;2.90;;;;;;;;;;5033415;28;20147;-69
2022/10/07 10:30:01;;;;;;;14.20;3.13;;;;;;;;;;5015541;28;20084;-68
2022/10/07 10:32:27;;;;;;;14.07;2.05;;;;;;;;;;5022418;28;20079;-68
2022/10/07 10:34:59;;;;;;;10.03;2.33;;;;;;;;;;5033781;28;20467;-69
2022/10/07 10:37:25;;;;;;;9.48;2.13;;;;;;;;;;5033767;28;20759;-69
2022/10/07 10:40:09;;;;;;;10.55;2.78;;;;;;;;;;5033468;28;20037;-68
2022/10/07 10:42:34;;;;;;;18.27;2.47;;;;;;;;;;5033535;28;20525;-69
2022/10/07 10:45:11;;;;;;;4.27;1.97;;;;;;;;;;5034520;28;20017;-68
2022/10/07 10:47:42;;;;;;;9.90;3.15;;;;;;;;;;5010996;28;20271;-72
2022/10/07 10:50:14;;;;;;;11.63;2.05;;;;;;;;;;5034400;28;20017;-70
2022/10/07 10:52:45;;;;;;;8.07;2.85;;;;;;;;;;5033610;28;20022;-71
2022/10/07 10:55:11;;;;;;;11.82;2.03;;;;;;;;;;5016663;28;20024;-67
2022/10/07 10:57:42;;;;;;;11.07;2.03;;;;;;;;;;5032737;28;20020;-66
2022/10/07 11:00:13;;;;;;;7.97;1.90;;;;;;;;;;5032717;28;20096;-67
2022/10/07 11:02:42;;;;;;;6.00;1.38;;;;;;;;;;5021290;28;20028;-68
2022/10/07 11:05:20;;;;;;;8.75;1.75;;;;;;;;;;5032758;28;20031;-69
2022/10/07 11:07:52;;;;;;;8.07;2.05;;;;;;;;;;5023363;28;20079;-68
2022/10/07 11:10:17;;;;;;;10.38;1.70;;;;;;;;;;5032084;28;20013;-68
2022/10/07 11:12:45;;;;;;;9.40;1.67;;;;;;;;;;5033011;28;20132;-69
2022/10/07 11:15:10;;;;;;;9.82;1.80;;;;;;;;;;5032792;28;20239;-68
2022/10/07 11:17:36;;;;;;;10.10;1.90;;;;;;;;;;5013509;28;20036;-68
2022/10/07 11:20:04;;;;;;;10.27;1.70;;;;;;;;;;5028961;28;20258;-68
2022/10/07 11:22:38;;;;;;;7.35;1.70;;;;;;;;;;5031653;28;20030;-70
2022/10/07 11:25:27;;;;;;;11.63;2.15;;;;;;;;;;5031720;28;20086;-68
2022/10/07 11:27:52;;;;;;;;;;;;;;;;;;5023843;28;20029;-70
2022/10/07 11:30:20;;;;;;;6.78;2.15;;;;;;;;;;5031840;28;19908;-67
2022/10/07 11:32:54;;;;;;;11.00;1.85;;;;;;;;;;5032047;28;20013;-66
2022/10/07 11:35:25;;;;;;;11.95;1.90;;;;;;;;;;5031632;28;20539;-69
2022/10/07 11:37:50;;;;;;;7.45;1.52;;;;;;;;;;5031679;28;20033;-69
2022/10/07 11:40:17;;;;;;;6.70;1.83;;;;;;;;;;5031608;28;20037;-69
2022/10/07 11:42:46;;;;;;;8.70;1.70;;;;;;;;;;5032448;28;20352;-71
2022/10/07 11:45:23;;;;;;;5.25;1.75;;;;;;;;;;5031674;28;20105;-68
2022/10/07 11:47:57;;;;;;;8.40;1.60;;;;;;;;;;5031014;28;20022;-67
2022/10/07 11:50:25;;;;;;;5.85;1.70;;;;;;;;;;5028025;28;20010;-70
2022/10/07 11:52:52;;;;;;;7.30;1.48;;;;;;;;;;5014109;28;20037;-66
2022/10/07 11:55:41;;;;;;;7.07;1.15;;;;;;;;;;5033103;28;20456;-68
2022/10/07 11:58:19;;;;;;;5.47;1.40;;;;;;;;;;5026293;28;20041;-70
2022/10/07 12:00:44;;;;;;;7.10;1.30;;;;;;;;;;5032533;28;20041;-72
2022/10/07 12:03:11;;;;;;;7.03;1.30;;;;;;;;;;5032239;28;20274;-68
2022/10/07 12:05:36;;;;;;;5.90;1.50;;;;;;;;;;5030727;28;20314;-68
2022/10/07 12:08:24;;;;;;;7.67;1.47;;;;;;;;;;5030614;28;20403;-67
2022/10/07 12:10:53;;;;;;;6.65;2.28;;;;;;;;;;5022737;28;20269;-68
2022/10/07 12:13:21;;;;;;;5.45;1.42;;;;;;;;;;5031031;28;20651;-69
2022/10/07 12:15:47;;;;;;;6.82;1.40;;;;;;;;;;5031825;28;20116;-71
2022/10/07 12:18:16;;;;;;;6.43;1.30;;;;;;;;;;5030317;28;20087;-69
2022/10/07 12:20:45;;;;;;;11.45;1.67;;;;;;;;;;5017438;28;20390;-69
2022/10/07 12:23:19;;;;;;;8.40;1.77;;;;;;;;;;5031933;28;20078;-66
2022/10/07 12:25:46;;;;;;;4.82;1.50;;;;;;;;;;5031535;28;20040;-70
2022/10/07 12:28:15;;;;;;;5.97;1.50;;;;;;;;;;5030276;28;20018;-68
2022/10/07 12:30:49;;;;;;;8.68;2.13;;;;;;;;;;5031835;28;20137;-69
2022/10/07 12:33:15;;;;;;;6.00;1.42;;;;;;;;;;5014455;28;20031;-70
2022/10/07 12:35:44;;;;;;;10.55;1.50;;;;;;;;;;5032640;28;20024;-69
2022/10/07 12:38:11;;;;;;;13.88;1.58;;;;;;;;;;5030857;28;20025;-68
2022/10/07 12:40:37;;;;;;;6.70;1.98;;;;;;;;;;5032164;28;20021;-68
2022/10/07 12:43:14;;;;;;;6.32;1.70;;;;;;;;;;5033426;28;20017;-68
2022/10/07 12:45:42;;;;;;;10.73;1.90;;;;;;;;;;5024790;28;20013;-70
2022/10/07 12:48:11;;;;;;;3.97;1.30;;;;;;;;;;5031725;28;20050;-69
2022/10/07 12:50:38;;;;;;;8.38;1.65;;;;;;;;;;5030371;28;20045;-69
2022/10/07 12:53:03;;;;;;;7.30;1.40;;;;;;;;;;5031047;28;20025;-66
2022/10/07 12:55:31;;;;;;;3.97;1.17;;;;;;;;;;5030294;28;20092;-67
2022/10/07 13:00:49;;;;;;;10.52;1.67;;;;;;;;;;5021855;28;20040;-68
2022/10/07 13:03:41;;;;;;;10.20;2.83;;;;;;;;;;5019495;28;20586;-68
2022/10/07 13:06:25;;;;;;;5.15;1.42;;;;;;;;;;5029059;28;20371;-68
2022/10/07 13:08:50;;;;;;;9.30;1.70;;;;;;;;;;5026123;28;20482;-71
2022/10/07 13:11:29;;;;;;;8.43;1.95;;;;;;;;;;5012123;28;20565;-66
2022/10/07 13:13:59;;;;;;;7.38;1.48;;;;;;;;;;5011118;28;20037;-72
2022/10/07 13:16:44;;;;;;;6.18;1.77;;;;;;;;;;5029167;28;20098;-69
2022/10/07 13:19:19;;;;;;;8.98;1.65;;;;;;;;;;5027445;28;20109;-68
2022/10/07 13:21:52;;;;;;;13.15;2.17;;;;;;;;;;5029601;28;20021;-69
2022/10/07 13:24:20;;;;;;;9.38;1.70;;;;;;;;;;5029270;28;20062;-70
2022/10/07 13:26:45;;;;;;;16.23;2.10;;;;;;;;;;5028139;28;20026;-70
2022/10/07 13:29:30;;;;;;;5.63;1.70;;;;;;;;;;5010393;28;20025;-67
2022/10/07 13:32:05;;;;;;;7.38;1.70;;;;;;;;;;5029660;28;20021;-69
2022/10/07 13:34:31;;;;;;;5.80;1.73;;;;;;;;;;5028634;28;20014;-68
2022/10/07 13:36:56;;;;;;;9.57;1.60;;;;;;;;;;5029392;28;20021;-69
2022/10/07 13:39:22;;;;;;;10.68;1.85;;;;;;;;;;5028185;28;20029;-69
2022/10/07 13:41:49;;;;;;;9.93;2.28;;;;;;;;;;5028865;28;20025;-68
2022/10/07 13:44:17;;;;;;;12.70;2.38;;;;;;;;;;5028527;28;20136;-68
2022/10/07 13:46:47;;;;;;;11.68;1.77;;;;;;;;;;5028986;28;20065;-72
2022/10/07 13:49:20;;;;;;;6.03;1.77;;;;;;;;;;5026111;28;20010;-72
2022/10/07 13:51:45;;;;;;;9.98;1.80;;;;;;;;;;5021763;28;20024;-71
2022/10/07 13:54:16;;;;;;;5.18;1.65;;;;;;;;;;5021340;28;20018;-69
2022/10/07 13:56:42;;;;;;;8.73;2.42;;;;;;;;;;5023368;28;20025;-71
2022/10/07 13:59:11;;;;;;;5.35;1.92;;;;;;;;;;5021304;28;20030;-68
2022/10/07 14:01:37;;;;;;;7.03;1.60;;;;;;;;;;5022619;28;20205;-66
2022/10/07 14:04:21;;;;;;;7.88;1.88;;;;;;;;;;5013717;28;20173;-68
2022/10/07 14:06:48;;;;;;;8.27;2.03;;;;;;;;;;5020291;28;21391;-67
2022/10/07 14:09:17;;;;;;;14.30;2.35;;;;;;;;;;5021257;28;20040;-66
2022/10/07 14:11:42;;;;;;;;;;;;;;;;;;5021479;28;20028;-71
2022/10/07 14:14:17;;;;;;;8.05;1.90;;;;;;;;;;5021124;28;19917;-67
2022/10/07 14:16:42;;;;;;;8.05;1.95;;;;;;;;;;5019898;28;20032;-68
2022/10/07 14:19:13;;;;;;;18.58;3.58;;;;;;;;;;5019231;28;20033;-68
2022/10/07 14:21:39;;;;;;;7.00;2.17;;;;;;;;;;5020675;28;20558;-70
2022/10/07 14:24:08;;;;;;;8.52;1.90;;;;;;;;;;5020883;28;20022;-67
2022/10/07 14:26:41;;;;;;;7.47;1.63;;;;;;;;;;5017433;28;20088;-73
2022/10/07 14:29:21;;;;;;;7.80;2.10;;;;;;;;;;5019359;28;20426;-69
2022/10/07 14:37:28;;;;;;;8.98;1.63;;;;;;;;;;5020084;28;20152;-71
2022/10/07 14:39:53;;;;;;;13.52;2.67;;;;;;;;;;5019753;28;20092;-69
2022/10/07 14:42:23;;;;;;;7.30;1.50;;;;;;;;;;5021089;28;20021;-71
2022/10/07 14:44:49;;;;;;;8.48;1.80;;;;;;;;;;5019871;28;20400;-69
2022/10/07 14:47:15;;;;;;;11.10;2.10;;;;;;;;;;5019420;28;20074;-71
2022/10/07 14:49:41;;;;;;;8.23;1.83;;;;;;;;;;5016763;28;20376;-68
2022/10/07 14:52:18;;;;;;;10.43;2.00;;;;;;;;;;5019249;28;20478;-67
2022/10/07 14:54:43;;;;;;;11.30;1.88;;;;;;;;;;5022495;28;20052;-69
2022/10/07 14:57:08;;;;;;;5.43;1.80;;;;;;;;;;5005242;28;20136;-69
2022/10/07 14:59:34;;;;;;;8.68;1.75;;;;;;;;;;5024573;28;20350;-67